Hyde Park, UT (84318)

9:05 PM MST on December 26, 2014 (GMT -0700)
Greystone | Change Station
CLOSE
Current Station
Personal Weather Station
Location: Hyde Park, UT
Elevation: 4948 ft
Nearby Weather Stations

Elev 4948 ft 41.81 °N, 111.80 °W | Updated 35 seconds ago

Overcast
Overcast
15.9 °F
Feels Like 16 °F
N
3.0
Wind Variable Wind from ENE
Gusts 10.0 mph

Today
High -- | Low -- °F
--% Chance of Precip.
Yesterday
High -- | Low -- °F
Precip. -- in
7:53 AM 5:02 PM
Waxing Crescent, 32% visible
Pressure 30.40 in
Visibility 10.0 miles
Clouds Overcast 8000 ft
Windchill 16 °F
Dew Point 11 °F
Humidity 81%
Rainfall 0.00 in
Snow Depth Not available.
UV 0 out of 12
Pollen .10 out of 12
Air Quality Not available.
Flu Activity Not available.
METAR KLGU 270351Z AUTO 13003KT 10SM OVC080 M12/M14 A3019 RMK AO2 SLP292 I1000 T11221144

More Conditions Fewer Conditions

Pressure 30.40 in
Visibility 10.0 miles
Clouds Overcast 8000 ft
Windchill 16 °F
Dew Point 11 °F
Humidity 81%
Rainfall 0.00 in
Snow Depth Not available.
UV 0 out of 12
Pollen .10 out of 12
Air Quality Not available.
Flu Activity Not available.
METAR KLGU 270351Z AUTO 13003KT 10SM OVC080 M12/M14 A3019 RMK AO2 SLP292 I1000 T11221144

More Conditions Fewer Conditions

10-Day Weather Forecast

Almanac

Astronomy

Dec. 26, 2014 Rise Set
Actual Time
Civil Twilight
Nautical Twilight
Astronomical Twilight
Moon
Length of Visible Light
Length of Day
Tomorrow will be .
, % of the Moon is Illuminated

Today's Extremes

State Highs State Lows

Community

WunderPhotos

Upload Photos

1,780,844 photos uploaded!

WunderBlogs® & News

Nearby

Air Quality

  Air Quality AQ Index Pollutant
Not available.

Snow Depth

Station Depth Elevation

Earthquake Activity

City Distance Mag. Time & Date
Minimum magnitude displayed is 2.5.

Coastal Water Temperatures

Place Temperature

Nearby Weather Stations